Time,TemperatureF,DewpointF,PressureIn,WindDirection,WindDirectionDegrees,WindSpeedMPH,WindSpeedGustMPH,Humidity,HourlyPrecipIn,Conditions,Clouds,dailyrainin,SoftwareType,DateUTC
2013-07-30 00:02:00,59.0,54.0,30.21,SSE,157,3.0,4.0,85,0.00,,,0.56,,2013-07-30 06:02:00,
2013-07-30 00:12:00,59.0,55.0,30.20,ESE,112,6.0,9.0,86,0.00,,,0.56,,2013-07-30 06:12:00,
2013-07-30 00:32:00,59.0,55.0,30.20,SSE,157,5.0,7.0,86,0.00,,,0.56,,2013-07-30 06:32:00,
2013-07-30 00:43:00,58.0,54.0,30.20,SE,135,4.0,6.0,88,0.00,,,0.56,,2013-07-30 06:43:00,
2013-07-30 01:02:00,58.0,55.0,30.20,SW,225,2.0,3.0,90,0.00,,,0.56,,2013-07-30 07:02:00,
2013-07-30 01:13:00,58.0,55.0,30.20,SSE,157,2.0,3.0,89,0.00,,,0.56,,2013-07-30 07:13:00,
2013-07-30 01:33:00,58.0,55.0,30.20,East,90,4.0,5.0,89,0.00,,,0.56,,2013-07-30 07:33:00,
2013-07-30 01:43:00,58.0,54.0,30.20,East,90,5.0,7.0,87,0.00,,,0.56,,2013-07-30 07:43:00,
2013-07-30 02:03:00,59.0,54.0,30.20,East,90,7.0,10.0,84,0.00,,,0.54,,2013-07-30 08:03:00,
2013-07-30 02:12:00,59.0,54.0,30.20,ESE,112,0.0,1.0,82,0.00,,,0.53,,2013-07-30 08:12:00,
2013-07-30 02:33:00,58.0,54.0,30.21,East,90,4.0,6.0,87,0.00,,,0.51,,2013-07-30 08:33:00,
2013-07-30 02:42:00,57.0,54.0,30.20,West,270,2.0,3.0,91,0.00,,,0.51,,2013-07-30 08:42:00,
2013-07-30 03:03:00,56.0,55.0,30.20,SW,225,0.0,0.0,95,0.00,,,0.49,,2013-07-30 09:03:00,
2013-07-30 03:12:00,56.0,55.0,30.20,West,270,2.0,2.0,97,0.00,,,0.49,,2013-07-30 09:12:00,
2013-07-30 03:33:00,56.0,55.0,30.20,West,270,1.0,2.0,97,0.00,,,0.49,,2013-07-30 09:33:00,
2013-07-30 03:43:00,56.0,55.0,30.20,West,270,0.0,0.0,97,0.00,,,0.49,,2013-07-30 09:43:00,
2013-07-30 04:02:00,56.0,55.0,30.21,West,270,1.0,2.0,97,0.00,,,0.47,,2013-07-30 10:02:00,
2013-07-30 04:12:00,56.0,55.0,30.21,SW,225,2.0,3.0,97,0.00,,,0.46,,2013-07-30 10:12:00,
2013-07-30 04:32:00,55.0,54.0,30.20,South,180,3.0,4.0,97,0.00,,,0.44,,2013-07-30 10:32:00,
2013-07-30 04:43:00,55.0,54.0,30.20,SSW,202,1.0,2.0,97,0.00,,,0.44,,2013-07-30 10:43:00,
2013-07-30 05:02:00,55.0,54.0,30.20,South,180,1.0,2.0,97,0.00,,,0.44,,2013-07-30 11:02:00,
2013-07-30 05:11:00,55.0,54.0,30.20,South,180,0.0,1.0,97,0.00,,,0.44,,2013-07-30 11:11:00,
2013-07-30 05:22:00,54.0,53.0,30.20,South,180,2.0,2.0,97,0.00,,,0.44,,2013-07-30 11:22:00,
2013-07-30 05:33:00,54.0,53.0,30.20,South,180,2.0,3.0,97,0.00,,,0.44,,2013-07-30 11:33:00,
2013-07-30 05:43:00,54.0,53.0,30.20,SSW,202,0.0,1.0,97,0.00,,,0.44,,2013-07-30 11:43:00,
2013-07-30 06:12:00,54.0,53.0,30.21,SSE,157,1.0,2.0,97,0.00,,,0.44,,2013-07-30 12:12:00,
2013-07-30 06:33:00,53.0,52.0,30.21,South,180,0.0,0.0,97,0.00,,,0.44,,2013-07-30 12:33:00,
2013-07-30 06:42:00,53.0,52.0,30.22,ESE,112,2.0,2.0,97,0.00,,,0.44,,2013-07-30 12:42:00,
2013-07-30 07:02:00,54.0,53.0,30.22,SE,135,2.0,2.0,97,0.00,,,0.44,,2013-07-30 13:02:00,
2013-07-30 07:12:00,54.0,53.0,30.24,SSW,202,2.0,2.0,97,0.00,,,0.44,,2013-07-30 13:12:00,
2013-07-30 07:32:00,56.0,55.0,30.25,South,180,1.0,2.0,97,0.00,,,0.44,,2013-07-30 13:32:00,
2013-07-30 07:42:00,57.0,55.0,30.26,South,180,1.0,2.0,92,0.00,,,0.44,,2013-07-30 13:42:00,
2013-07-30 08:02:00,60.0,55.0,30.28,South,180,2.0,2.0,85,0.00,,,0.44,,2013-07-30 14:02:00,
2013-07-30 08:12:00,61.0,55.0,30.29,ENE,67,2.0,3.0,80,0.00,,,0.44,,2013-07-30 14:12:00,
2013-07-30 08:33:00,62.0,54.0,30.29,ESE,112,0.0,2.0,76,0.00,,,0.44,,2013-07-30 14:33:00,
2013-07-30 08:43:00,63.0,55.0,30.32,SSW,202,1.0,2.0,74,0.00,,,0.44,,2013-07-30 14:43:00,
2013-07-30 09:02:00,65.0,55.0,30.33,SW,225,0.0,1.0,70,0.00,,,0.44,,2013-07-30 15:02:00,
2013-07-30 09:12:00,65.0,56.0,30.33,West,270,1.0,2.0,72,0.00,,,0.44,,2013-07-30 15:12:00,
2013-07-30 09:33:00,67.0,56.0,30.35,North,360,3.0,5.0,69,0.00,,,0.44,,2013-07-30 15:33:00,
2013-07-30 09:43:00,67.0,56.0,30.36,NNE,22,1.0,2.0,69,0.00,,,0.44,,2013-07-30 15:43:00,
2013-07-30 10:02:00,67.0,58.0,30.36,North,360,0.0,0.0,72,0.00,,,0.44,,2013-07-30 16:02:00,
2013-07-30 10:12:00,68.0,57.0,30.36,West,270,1.0,2.0,69,0.00,,,0.44,,2013-07-30 16:12:00,
2013-07-30 10:33:00,68.0,57.0,30.36,West,270,2.0,3.0,67,0.00,,,0.44,,2013-07-30 16:33:00,
2013-07-30 10:43:00,70.0,57.0,30.36,ESE,112,3.0,4.0,64,0.00,,,0.44,,2013-07-30 16:43:00,
2013-07-30 11:02:00,71.0,56.0,30.37,ESE,112,0.0,0.0,60,0.00,,,0.44,,2013-07-30 17:02:00,
2013-07-30 11:12:00,71.0,56.0,30.37,NE,45,3.0,4.0,60,0.00,,,0.44,,2013-07-30 17:12:00,
2013-07-30 11:32:00,73.0,57.0,30.37,NE,45,3.0,5.0,58,0.00,,,0.44,,2013-07-30 17:32:00,
2013-07-30 11:43:00,73.0,58.0,30.37,NE,45,2.0,2.0,59,0.00,,,0.44,,2013-07-30 17:43:00,
2013-07-30 12:03:00,74.0,57.0,30.37,ENE,67,1.0,2.0,56,0.00,,,0.44,,2013-07-30 18:03:00,
2013-07-30 12:12:00,75.0,59.0,30.37,NE,45,2.0,4.0,58,0.00,,,0.44,,2013-07-30 18:12:00,
2013-07-30 12:23:00,75.0,59.0,30.37,NE,45,2.0,4.0,58,0.00,,,0.44,,2013-07-30 18:23:00,
2013-07-30 12:32:00,76.0,58.0,30.36,NNE,22,4.0,6.0,53,0.00,,,0.44,,2013-07-30 18:32:00,
2013-07-30 12:42:00,76.0,57.0,30.36,North,360,6.0,7.0,52,0.00,,,0.44,,2013-07-30 18:42:00,
2013-07-30 13:02:00,77.0,59.0,30.36,NE,45,4.0,6.0,53,0.00,,,0.44,,2013-07-30 19:02:00,
2013-07-30 13:12:00,78.0,58.0,30.36,North,360,4.0,6.0,50,0.00,,,0.44,,2013-07-30 19:12:00,
2013-07-30 13:33:00,79.0,50.0,30.36,NE,45,2.0,2.0,37,0.00,,,0.44,,2013-07-30 19:33:00,
2013-07-30 13:44:00,79.0,54.0,30.35,NW,315,1.0,2.0,42,0.00,,,0.44,,2013-07-30 19:44:00,
2013-07-30 14:02:00,79.0,52.0,30.36,NNE,22,5.0,7.0,39,0.00,,,0.44,,2013-07-30 20:02:00,
2013-07-30 14:12:00,80.0,53.0,30.35,North,360,3.0,5.0,40,0.00,,,0.44,,2013-07-30 20:12:00,
2013-07-30 14:32:00,81.0,52.0,30.35,North,360,3.0,7.0,37,0.00,,,0.44,,2013-07-30 20:32:00,
2013-07-30 14:43:00,81.0,47.0,30.35,NW,315,4.0,5.0,31,0.00,,,0.44,,2013-07-30 20:43:00,
2013-07-30 15:02:00,81.0,47.0,30.35,NNE,22,5.0,8.0,31,0.00,,,0.44,,2013-07-30 21:02:00,
2013-07-30 15:12:00,81.0,51.0,30.36,ENE,67,5.0,7.0,35,0.00,,,0.44,,2013-07-30 21:12:00,
2013-07-30 15:32:00,82.0,48.0,30.36,North,360,5.0,7.0,31,0.00,,,0.44,,2013-07-30 21:32:00,
2013-07-30 15:42:00,81.0,49.0,30.36,North,360,4.0,6.0,33,0.00,,,0.44,,2013-07-30 21:42:00,
2013-07-30 16:02:00,82.0,49.0,30.36,NE,45,4.0,6.0,32,0.00,,,0.44,,2013-07-30 22:02:00,
2013-07-30 16:12:00,83.0,48.0,30.36,East,90,1.0,2.0,30,0.00,,,0.44,,2013-07-30 22:12:00,
2013-07-30 16:32:00,83.0,52.0,30.36,NNE,22,4.0,7.0,35,0.00,,,0.44,,2013-07-30 22:32:00,
2013-07-30 16:43:00,83.0,48.0,30.36,NE,45,3.0,5.0,30,0.00,,,0.44,,2013-07-30 22:43:00,
2013-07-30 17:02:00,83.0,47.0,30.36,NNE,22,4.0,6.0,28,0.00,,,0.44,,2013-07-30 23:02:00,
2013-07-30 17:12:00,83.0,46.0,30.36,NE,45,2.0,2.0,27,0.00,,,0.44,,2013-07-30 23:12:00,
2013-07-30 17:22:00,83.0,47.0,30.36,ENE,67,1.0,2.0,28,0.00,,,0.44,,2013-07-30 23:22:00,
2013-07-30 17:32:00,83.0,45.0,30.35,South,180,2.0,3.0,26,0.00,,,0.44,,2013-07-30 23:32:00,
2013-07-30 17:42:00,84.0,44.0,30.35,SSW,202,1.0,2.0,25,0.00,,,0.44,,2013-07-30 23:42:00,
2013-07-30 17:53:00,84.0,44.0,30.35,SSW,202,0.0,1.0,25,0.00,,,0.44,,2013-07-30 23:53:00,
2013-07-30 18:02:00,82.0,49.0,30.34,East,90,1.0,2.0,32,0.00,,,0.44,,2013-07-31 00:02:00,
2013-07-30 18:12:00,81.0,48.0,30.34,ENE,67,2.0,3.0,32,0.00,,,0.44,,2013-07-31 00:12:00,
2013-07-30 18:32:00,83.0,47.0,30.34,NE,45,4.0,6.0,29,0.00,,,0.44,,2013-07-31 00:32:00,
2013-07-30 18:43:00,82.0,45.0,30.34,NE,45,3.0,4.0,27,0.00,,,0.43,,2013-07-31 00:43:00,
2013-07-30 18:53:00,81.0,46.0,30.33,NE,45,2.0,2.0,29,0.00,,,0.40,,2013-07-31 00:53:00,
2013-07-30 19:02:00,81.0,49.0,30.33,NE,45,2.0,2.0,33,0.00,,,0.16,,2013-07-31 01:02:00,
2013-07-30 19:12:00,81.0,47.0,30.32,NE,45,2.0,2.0,30,0.00,,,0.05,,2013-07-31 01:12:00,
2013-07-30 19:22:00,81.0,45.0,30.33,NE,45,2.0,2.0,28,0.00,,,0.02,,2013-07-31 01:22:00,
2013-07-30 19:32:00,81.0,43.0,30.32,NE,45,2.0,2.0,26,0.00,,,0.02,,2013-07-31 01:32:00,
2013-07-30 19:42:00,80.0,48.0,30.32,NE,45,0.0,0.0,33,0.00,,,0.02,,2013-07-31 01:42:00,
2013-07-30 20:12:00,79.0,47.0,30.32,SE,135,1.0,2.0,32,0.00,,,0.02,,2013-07-31 02:12:00,
2013-07-30 20:22:00,79.0,45.0,30.31,SE,135,2.0,2.0,30,0.00,,,0.02,,2013-07-31 02:22:00,
2013-07-30 21:42:00,68.0,54.0,30.27,South,180,3.0,4.0,62,0.00,,,0.02,,2013-07-31 03:42:00,
2013-07-30 21:52:00,67.0,54.0,30.26,South,180,3.0,4.0,64,0.00,,,0.02,,2013-07-31 03:52:00,
2013-07-30 22:02:00,67.0,54.0,30.26,South,180,4.0,4.0,63,0.00,,,0.02,,2013-07-31 04:02:00,
2013-07-30 22:12:00,66.0,54.0,30.27,ESE,112,5.0,7.0,65,0.00,,,0.02,,2013-07-31 04:12:00,
2013-07-30 22:22:00,66.0,52.0,30.26,ESE,112,3.0,4.0,61,0.00,,,0.02,,2013-07-31 04:22:00,
2013-07-30 22:32:00,66.0,52.0,30.26,ESE,112,3.0,4.0,61,0.00,,,0.02,,2013-07-31 04:32:00,
2013-07-30 22:42:00,66.0,52.0,30.26,ESE,112,3.0,4.0,61,0.00,,,0.02,,2013-07-31 04:42:00,
2013-07-30 22:52:00,66.0,52.0,30.26,ESE,112,3.0,4.0,61,0.00,,,0.02,,2013-07-31 04:52:00,
2013-07-30 23:02:00,66.0,50.0,30.26,SSE,157,2.0,3.0,56,0.00,,,0.02,,2013-07-31 05:02:00,
2013-07-30 23:11:00,65.0,50.0,30.26,SE,135,2.0,3.0,58,0.00,,,0.02,,2013-07-31 05:11:00,
2013-07-30 23:32:00,65.0,49.0,30.26,ESE,112,2.0,3.0,57,0.00,,,0.02,,2013-07-31 05:32:00,
2013-07-30 23:42:00,63.0,50.0,30.26,SE,135,2.0,3.0,62,0.00,,,0.02,,2013-07-31 05:42:00,